createdAt,value
2022-10-02T00:01:47.205Z,15.12
2022-10-02T00:04:19.753Z,16.43
2022-10-02T00:06:49.200Z,17.71
2022-10-02T00:09:21.878Z,15.25
2022-10-02T00:11:51.662Z,15.43
2022-10-02T00:14:21.321Z,15.19
2022-10-02T00:16:51.980Z,16.57
2022-10-02T00:19:21.299Z,15.37
2022-10-02T00:22:11.472Z,15.69
2022-10-02T00:24:43.818Z,14.76
2022-10-02T00:27:21.578Z,15.36
2022-10-02T00:29:51.283Z,14.62
2022-10-02T00:32:26.719Z,15.83
2022-10-02T00:35:32.319Z,15.63
2022-10-02T00:38:04.025Z,15.47
2022-10-02T00:40:40.714Z,16.80
2022-10-02T00:43:16.984Z,15.13
2022-10-02T00:46:03.481Z,16.65
2022-10-02T00:48:48.634Z,16.62
2022-10-02T00:51:29.117Z,15.49
2022-10-02T00:54:03.098Z,15.31
2022-10-02T00:56:36.441Z,17.39
2022-10-02T00:59:14.290Z,15.54
2022-10-02T01:01:46.006Z,16.46
2022-10-02T01:04:14.443Z,14.91
2022-10-02T01:06:43.541Z,14.42
2022-10-02T01:09:12.279Z,16.57
2022-10-02T01:11:40.773Z,14.82
2022-10-02T01:14:09.009Z,17.68
2022-10-02T01:16:37.022Z,16.88
2022-10-02T01:19:05.015Z,15.61
2022-10-02T01:21:38.481Z,15.06
2022-10-02T01:24:12.054Z,14.56
2022-10-02T01:26:41.154Z,15.80
2022-10-02T01:29:08.889Z,13.98
2022-10-02T01:31:37.247Z,15.72
2022-10-02T01:34:05.422Z,15.30
2022-10-02T01:36:33.972Z,15.50
2022-10-02T01:39:02.908Z,15.50
2022-10-02T01:41:30.889Z,16.81
2022-10-02T01:44:01.885Z,15.19
2022-10-02T01:46:34.028Z,15.48
2022-10-02T01:49:14.995Z,15.83
2022-10-02T01:51:54.009Z,15.24
2022-10-02T01:54:28.019Z,14.98
2022-10-02T01:57:05.571Z,15.47
2022-10-02T01:59:43.633Z,15.76
2022-10-02T02:02:19.259Z,15.79
2022-10-02T02:04:54.795Z,16.39
2022-10-02T02:07:30.502Z,15.56
2022-10-02T02:10:01.944Z,15.79
2022-10-02T02:12:35.515Z,15.13
2022-10-02T02:15:08.576Z,14.17
2022-10-02T02:17:41.870Z,15.10
2022-10-02T02:20:11.520Z,14.78
2022-10-02T02:22:42.344Z,15.75
2022-10-02T02:25:12.456Z,14.74
2022-10-02T02:27:42.583Z,14.60
2022-10-02T02:30:13.548Z,15.79
2022-10-02T02:32:44.927Z,14.41
2022-10-02T02:35:17.280Z,14.98
2022-10-02T02:37:46.482Z,15.29
2022-10-02T02:40:17.093Z,14.53
2022-10-02T02:42:49.368Z,15.62
2022-10-02T02:45:20.775Z,14.61
2022-10-02T02:47:51.474Z,17.87
2022-10-02T02:50:22.530Z,17.58
2022-10-02T02:52:53.742Z,14.88
2022-10-02T02:55:23.804Z,14.76
2022-10-02T02:57:54.683Z,15.75
2022-10-02T03:00:24.235Z,16.17
2022-10-02T03:02:54.520Z,15.93
2022-10-02T03:05:24.184Z,14.71
2022-10-02T03:07:53.982Z,16.31
2022-10-02T03:10:33.235Z,14.63
2022-10-02T03:13:14.051Z,14.92
2022-10-02T03:15:52.392Z,16.40
2022-10-02T03:18:33.233Z,15.64
2022-10-02T03:21:08.254Z,15.53
2022-10-02T03:23:40.635Z,16.09
2022-10-02T03:26:13.761Z,14.48
2022-10-02T03:28:55.606Z,14.97
2022-10-02T03:31:27.760Z,14.78
2022-10-02T03:33:56.128Z,15.83
2022-10-02T03:36:24.649Z,16.20
2022-10-02T03:39:12.519Z,15.66
2022-10-02T03:41:40.881Z,17.31
2022-10-02T03:44:08.782Z,14.73
2022-10-02T03:46:38.209Z,15.21
2022-10-02T03:49:06.306Z,15.82
2022-10-02T03:51:33.986Z,15.54
2022-10-02T03:54:01.850Z,15.10
2022-10-02T03:56:37.046Z,15.66
2022-10-02T03:59:06.782Z,15.30
2022-10-02T04:01:38.541Z,13.17
2022-10-02T04:04:09.521Z,15.00
2022-10-02T04:06:43.455Z,14.85
2022-10-02T04:09:13.673Z,15.92
2022-10-02T04:11:44.370Z,15.24
2022-10-02T04:14:17.551Z,15.77
2022-10-02T04:16:50.546Z,14.51
2022-10-02T04:19:22.435Z,14.35
2022-10-02T04:21:55.555Z,14.55
2022-10-02T04:24:29.739Z,15.49
2022-10-02T04:27:03.444Z,15.47
2022-10-02T04:29:35.188Z,14.12
2022-10-02T04:32:12.205Z,15.29
2022-10-02T04:34:40.120Z,13.61
2022-10-02T04:37:31.885Z,14.84
2022-10-02T04:40:08.687Z,14.74
2022-10-02T04:42:44.966Z,13.70
2022-10-02T04:45:26.569Z,14.20
2022-10-02T04:48:11.241Z,14.39
2022-10-02T04:50:45.073Z,14.94
2022-10-02T04:53:33.665Z,14.01
2022-10-02T04:56:22.674Z,15.73
2022-10-02T04:59:07.130Z,14.72
2022-10-02T05:01:47.200Z,15.20
2022-10-02T05:04:37.238Z,15.29
2022-10-02T05:07:20.405Z,15.84
2022-10-02T05:09:53.843Z,14.86
2022-10-02T05:12:32.431Z,15.52
2022-10-02T05:15:22.366Z,15.02
2022-10-02T05:18:08.297Z,15.25
2022-10-02T05:20:57.410Z,16.85
2022-10-02T05:23:39.655Z,15.06
2022-10-02T05:26:32.617Z,16.47
2022-10-02T05:29:25.010Z,15.52
2022-10-02T05:32:07.950Z,17.02
2022-10-02T05:34:51.180Z,14.39
2022-10-02T05:37:35.214Z,15.94
2022-10-02T05:40:06.852Z,14.90
2022-10-02T05:42:42.300Z,14.08
2022-10-02T05:45:20.397Z,14.41
2022-10-02T05:47:48.391Z,15.81
2022-10-02T05:50:18.340Z,15.32
2022-10-02T05:52:53.786Z,16.00
2022-10-02T05:55:26.246Z,17.26
2022-10-02T05:57:57.300Z,16.09
2022-10-02T06:00:31.341Z,16.63
2022-10-02T06:03:08.147Z,16.45
2022-10-02T06:05:44.691Z,16.15
2022-10-02T06:08:17.591Z,15.03
2022-10-02T06:10:49.236Z,14.54
2022-10-02T06:13:22.303Z,15.63
2022-10-02T06:15:52.751Z,14.93
2022-10-02T06:18:22.566Z,15.04
2022-10-02T06:20:53.376Z,15.22
2022-10-02T06:23:25.730Z,15.94
2022-10-02T06:25:55.512Z,15.09
2022-10-02T06:28:27.794Z,15.48
2022-10-02T06:30:58.628Z,16.26
2022-10-02T06:33:28.165Z,16.20
2022-10-02T06:36:08.496Z,17.71
2022-10-02T06:38:48.651Z,13.79
2022-10-02T06:41:20.630Z,16.19
2022-10-02T06:44:08.119Z,16.29
2022-10-02T06:46:42.789Z,16.74
2022-10-02T06:49:16.735Z,15.53
2022-10-02T06:51:53.970Z,16.39
2022-10-02T06:54:41.445Z,15.25
2022-10-02T06:57:33.204Z,16.88
2022-10-02T07:00:10.330Z,15.83
2022-10-02T07:02:54.851Z,17.17
2022-10-02T07:05:35.296Z,17.40
2022-10-02T07:08:07.689Z,16.11
2022-10-02T07:10:39.327Z,17.12
2022-10-02T07:13:21.028Z,17.21
2022-10-02T07:16:09.841Z,16.73
2022-10-02T07:18:49.940Z,19.90
2022-10-02T07:21:23.473Z,17.36
2022-10-02T07:24:01.422Z,18.01
2022-10-02T07:26:48.439Z,16.39
2022-10-02T07:29:26.775Z,15.77
2022-10-02T07:32:05.491Z,17.47
2022-10-02T07:34:40.654Z,15.58
2022-10-02T07:37:17.555Z,17.94
2022-10-02T07:39:55.672Z,17.15
2022-10-02T07:42:39.913Z,18.72
2022-10-02T07:45:29.557Z,16.80
2022-10-02T07:48:22.222Z,17.16
2022-10-02T07:51:31.579Z,16.32
2022-10-02T07:54:08.410Z,17.50
2022-10-02T07:56:37.417Z,16.74
2022-10-02T07:59:10.759Z,17.48
2022-10-02T08:01:40.802Z,18.65
2022-10-02T08:04:12.090Z,17.25
2022-10-02T08:06:40.192Z,18.86
2022-10-02T08:09:11.891Z,18.95
2022-10-02T08:11:49.202Z,18.59
2022-10-02T08:14:22.337Z,17.57
2022-10-02T08:16:51.678Z,18.52
2022-10-02T08:19:21.697Z,17.31
2022-10-02T08:21:52.590Z,17.59
2022-10-02T08:24:23.321Z,18.45
2022-10-02T08:26:54.769Z,18.56
2022-10-02T08:29:28.080Z,18.05
2022-10-02T08:31:57.246Z,20.65
2022-10-02T08:34:26.134Z,19.46
2022-10-02T08:37:09.267Z,20.53
2022-10-02T08:39:50.446Z,20.23
2022-10-02T08:42:47.571Z,18.26
2022-10-02T08:45:42.676Z,21.57
2022-10-02T08:48:41.470Z,19.50
2022-10-02T08:51:27.168Z,18.87
2022-10-02T08:54:19.373Z,18.41
2022-10-02T08:56:58.808Z,19.22
2022-10-02T08:59:43.841Z,18.95
2022-10-02T09:02:49.123Z,19.67
2022-10-02T09:05:47.013Z,18.76
2022-10-02T09:08:57.144Z,20.88
2022-10-02T09:11:53.243Z,19.48
2022-10-02T09:14:53.531Z,20.48
2022-10-02T09:17:44.409Z,20.33
2022-10-02T09:20:39.284Z,20.98
2022-10-02T09:23:39.434Z,19.72
2022-10-02T09:26:18.571Z,20.71
2022-10-02T09:29:10.117Z,19.88
2022-10-02T09:32:19.453Z,18.38
2022-10-02T09:35:24.594Z,19.58
2022-10-02T09:38:27.179Z,19.89
2022-10-02T09:41:27.917Z,20.40
2022-10-02T09:44:22.505Z,20.03
2022-10-02T09:47:19.236Z,20.98
2022-10-02T09:50:16.244Z,19.89
2022-10-02T09:53:13.428Z,20.35
2022-10-02T09:56:07.781Z,22.54
2022-10-02T09:59:04.098Z,19.49
2022-10-02T10:01:45.823Z,20.30
2022-10-02T10:05:05.026Z,21.27
2022-10-02T10:08:09.308Z,19.21
2022-10-02T10:10:53.975Z,20.94
2022-10-02T10:13:59.729Z,19.74
2022-10-02T10:17:08.936Z,19.71
2022-10-02T10:20:05.214Z,19.77
2022-10-02T10:23:03.520Z,18.95
2022-10-02T10:25:56.162Z,17.87
2022-10-02T10:28:55.206Z,16.06
2022-10-02T10:32:13.552Z,14.94
2022-10-02T10:35:04.577Z,14.32
2022-10-02T10:38:30.735Z,14.42
2022-10-02T10:41:39.141Z,15.21
2022-10-02T10:44:51.235Z,14.82
2022-10-02T10:48:02.297Z,15.52
2022-10-02T10:50:39.764Z,15.94
2022-10-02T10:53:17.983Z,16.92
2022-10-02T10:56:03.446Z,16.62
2022-10-02T10:58:44.128Z,16.99
2022-10-02T11:01:15.328Z,18.99
2022-10-02T11:04:25.146Z,17.58
2022-10-02T11:07:16.318Z,19.73
2022-10-02T11:10:07.561Z,17.47
2022-10-02T11:12:44.502Z,16.85
2022-10-02T11:15:24.748Z,17.16
2022-10-02T11:18:05.250Z,17.54
2022-10-02T11:20:57.661Z,17.84
2022-10-02T11:23:40.375Z,16.04
2022-10-02T11:26:40.590Z,16.92
2022-10-02T11:29:23.872Z,18.16
2022-10-02T11:32:27.999Z,18.58
2022-10-02T11:35:23.369Z,16.25
2022-10-02T11:38:26.691Z,16.03
2022-10-02T11:41:13.136Z,15.54
2022-10-02T11:44:04.759Z,15.19
2022-10-02T11:46:52.606Z,14.19
2022-10-02T11:50:01.093Z,14.68
2022-10-02T11:52:48.245Z,14.68
2022-10-02T11:55:22.305Z,16.33
2022-10-02T11:57:52.177Z,18.61
2022-10-02T12:00:57.335Z,19.77
2022-10-02T12:03:30.560Z,19.39
2022-10-02T12:06:04.501Z,19.98
2022-10-02T12:08:46.801Z,19.40
2022-10-02T12:11:19.248Z,19.76
2022-10-02T12:14:06.272Z,20.92
2022-10-02T12:16:42.926Z,22.38
2022-10-02T12:19:21.380Z,21.81
2022-10-02T12:22:15.987Z,19.50
2022-10-02T12:25:07.633Z,20.91
2022-10-02T12:27:44.539Z,18.92
2022-10-02T12:30:14.234Z,19.08
2022-10-02T12:33:15.959Z,21.51
2022-10-02T12:36:09.168Z,20.92
2022-10-02T12:38:52.244Z,20.79
2022-10-02T12:41:34.404Z,22.28
2022-10-02T12:44:22.110Z,24.52
2022-10-02T12:47:20.991Z,20.45
2022-10-02T12:49:55.028Z,22.43
2022-10-02T12:52:52.545Z,22.77
2022-10-02T12:55:46.905Z,23.84
2022-10-02T12:58:23.588Z,20.68
2022-10-02T13:01:16.698Z,19.20
2022-10-02T13:04:17.066Z,18.58
2022-10-02T13:07:14.695Z,20.65
2022-10-02T13:09:47.858Z,18.83
2022-10-02T13:12:32.731Z,20.95
2022-10-02T13:15:17.582Z,18.79
2022-10-02T13:17:50.361Z,18.75
2022-10-02T13:20:24.762Z,18.38
2022-10-02T13:23:00.589Z,21.65
2022-10-02T13:25:34.978Z,23.45
2022-10-02T13:28:16.047Z,23.19
2022-10-02T13:30:48.959Z,24.27
2022-10-02T13:33:34.976Z,24.41
2022-10-02T13:36:15.038Z,28.31
2022-10-02T13:38:59.475Z,26.24
2022-10-02T13:41:39.057Z,27.31
2022-10-02T13:44:18.351Z,25.08
2022-10-02T13:47:01.789Z,23.54
2022-10-02T13:49:40.307Z,22.00
2022-10-02T13:52:17.718Z,22.40
2022-10-02T13:55:04.727Z,21.30
2022-10-02T13:57:44.909Z,25.07
2022-10-02T14:00:22.622Z,23.45
2022-10-02T14:03:00.306Z,21.27
2022-10-02T14:05:35.987Z,23.94
2022-10-02T14:08:15.816Z,23.73
2022-10-02T14:10:54.162Z,24.25
2022-10-02T14:13:45.146Z,24.97
2022-10-02T14:16:30.537Z,25.04
2022-10-02T14:19:20.126Z,22.07
2022-10-02T14:21:59.133Z,21.60
2022-10-02T14:24:59.943Z,22.65
2022-10-02T14:28:15.772Z,22.33
2022-10-02T14:30:56.329Z,22.72
2022-10-02T14:33:35.016Z,22.74
2022-10-02T14:36:08.122Z,23.73
2022-10-02T14:38:41.693Z,23.49
2022-10-02T14:41:21.282Z,22.41
2022-10-02T14:44:01.191Z,21.94
2022-10-02T14:46:40.600Z,21.79
2022-10-02T14:49:26.980Z,23.17
2022-10-02T14:52:21.606Z,23.22
2022-10-02T14:55:23.009Z,23.53
2022-10-02T14:58:01.748Z,20.58
2022-10-02T15:00:36.466Z,22.68
2022-10-02T15:03:47.135Z,23.39
2022-10-02T15:06:36.955Z,25.78
2022-10-02T15:09:08.502Z,22.72
2022-10-02T15:12:01.673Z,21.27
2022-10-02T15:14:38.103Z,21.38
2022-10-02T15:17:26.923Z,23.89
2022-10-02T15:19:58.892Z,24.76
2022-10-02T15:22:30.077Z,23.32
2022-10-02T15:24:59.111Z,20.95
2022-10-02T15:27:28.268Z,23.52
2022-10-02T15:30:06.152Z,25.46
2022-10-02T15:33:02.245Z,24.94
2022-10-02T15:35:36.649Z,23.44
2022-10-02T15:38:37.162Z,21.07
2022-10-02T15:41:34.918Z,22.95
2022-10-02T15:44:10.230Z,20.94
2022-10-02T15:46:49.622Z,24.93
2022-10-02T15:49:20.851Z,22.36
2022-10-02T15:52:04.319Z,23.54
2022-10-02T15:54:40.382Z,22.47
2022-10-02T15:57:23.116Z,21.63
2022-10-02T16:00:01.928Z,23.37
2022-10-02T16:03:01.051Z,20.48
2022-10-02T16:05:40.273Z,21.10
2022-10-02T16:08:41.974Z,20.20
2022-10-02T16:11:45.670Z,19.78
2022-10-02T16:14:15.450Z,21.45
2022-10-02T16:17:04.848Z,20.34
2022-10-02T16:19:45.098Z,18.43
2022-10-02T16:22:23.495Z,17.91
2022-10-02T16:25:00.559Z,17.89
2022-10-02T16:27:32.812Z,19.13
2022-10-02T16:30:12.458Z,18.61
2022-10-02T16:33:02.798Z,17.78
2022-10-02T16:36:08.176Z,17.66
2022-10-02T16:38:46.303Z,17.13
2022-10-02T16:41:31.104Z,17.82
2022-10-02T16:44:07.706Z,18.00
2022-10-02T16:46:38.728Z,17.10
2022-10-02T16:49:15.705Z,17.48
2022-10-02T16:51:51.539Z,16.79
2022-10-02T16:54:25.057Z,17.12
2022-10-02T16:56:55.445Z,17.30
2022-10-02T16:59:27.183Z,17.88
2022-10-02T17:02:17.015Z,17.69
2022-10-02T17:04:53.752Z,18.21
2022-10-02T17:07:30.020Z,18.06
2022-10-02T17:10:03.268Z,17.24
2022-10-02T17:12:33.918Z,16.59
2022-10-02T17:15:08.208Z,15.83
2022-10-02T17:17:49.701Z,16.96
2022-10-02T17:20:21.111Z,16.53
2022-10-02T17:22:56.867Z,17.28
2022-10-02T17:25:29.598Z,16.71
2022-10-02T17:28:00.229Z,16.44
2022-10-02T17:30:31.496Z,16.35
2022-10-02T17:33:07.840Z,15.12
2022-10-02T17:35:42.288Z,16.24
2022-10-02T17:38:29.436Z,15.80
2022-10-02T17:41:04.751Z,16.03
2022-10-02T17:43:39.020Z,16.00
2022-10-02T17:46:30.199Z,15.64
2022-10-02T17:48:58.915Z,16.24
2022-10-02T17:51:52.351Z,16.02
2022-10-02T17:55:01.128Z,17.51
2022-10-02T17:57:42.702Z,16.26
2022-10-02T18:00:13.719Z,15.96
2022-10-02T18:02:45.300Z,16.76
2022-10-02T18:05:26.931Z,16.50
2022-10-02T18:08:15.719Z,16.36
2022-10-02T18:10:49.957Z,15.84
2022-10-02T18:13:42.622Z,17.14
2022-10-02T18:16:22.893Z,15.92
2022-10-02T18:19:15.116Z,15.66
2022-10-02T18:21:48.358Z,16.66
2022-10-02T18:24:27.966Z,17.19
2022-10-02T18:27:09.579Z,15.30
2022-10-02T18:29:49.482Z,16.86
2022-10-02T18:32:31.743Z,16.49
2022-10-02T18:35:16.611Z,15.77
2022-10-02T18:37:57.458Z,16.37
2022-10-02T18:40:28.735Z,17.54
2022-10-02T18:43:11.043Z,16.07
2022-10-02T18:45:45.199Z,17.04
2022-10-02T18:48:23.284Z,16.94
2022-10-02T18:51:06.359Z,16.28
2022-10-02T18:53:43.804Z,16.95
2022-10-02T18:56:13.274Z,15.32
2022-10-02T18:58:53.281Z,16.68
2022-10-02T19:01:47.048Z,17.84
2022-10-02T19:04:37.202Z,16.01
2022-10-02T19:07:10.709Z,16.78
2022-10-02T19:09:38.489Z,16.60
2022-10-02T19:12:15.657Z,15.72
2022-10-02T19:14:45.835Z,15.74
2022-10-02T19:17:16.865Z,15.69
2022-10-02T19:19:44.900Z,15.84
2022-10-02T19:22:19.188Z,15.65
2022-10-02T19:24:49.433Z,14.72
2022-10-02T19:27:23.162Z,16.53
2022-10-02T19:29:55.823Z,15.24
2022-10-02T19:32:27.321Z,15.18
2022-10-02T19:34:57.779Z,14.88
2022-10-02T19:37:27.177Z,15.50
2022-10-02T19:39:55.033Z,15.12
2022-10-02T19:42:26.771Z,16.82
2022-10-02T19:44:57.393Z,15.17
2022-10-02T19:47:28.095Z,15.03
2022-10-02T19:49:56.868Z,15.17
2022-10-02T19:52:36.945Z,15.69
2022-10-02T19:55:07.350Z,15.82
2022-10-02T19:57:40.033Z,14.96
2022-10-02T20:00:15.403Z,15.68
2022-10-02T20:02:46.614Z,14.34
2022-10-02T20:05:21.993Z,14.97
2022-10-02T20:07:52.412Z,15.66
2022-10-02T20:10:23.506Z,16.25
2022-10-02T20:12:55.335Z,14.07
2022-10-02T20:15:39.480Z,14.89
2022-10-02T20:18:07.018Z,15.51
2022-10-02T20:20:35.815Z,15.10
2022-10-02T20:23:06.808Z,13.62
2022-10-02T20:25:39.046Z,14.18
2022-10-02T20:28:14.769Z,14.87
2022-10-02T20:30:47.054Z,14.61
2022-10-02T20:33:18.156Z,14.66
2022-10-02T20:35:47.976Z,15.21
2022-10-02T20:38:19.706Z,14.76
2022-10-02T20:40:53.158Z,14.79
2022-10-02T20:43:23.791Z,16.15
2022-10-02T20:45:57.339Z,14.78
2022-10-02T20:49:08.106Z,14.06
2022-10-02T20:52:01.846Z,15.28
2022-10-02T20:54:49.107Z,15.54
2022-10-02T20:57:59.706Z,14.86
2022-10-02T21:00:28.828Z,15.58
2022-10-02T21:03:17.459Z,15.67
2022-10-02T21:06:03.463Z,14.51
2022-10-02T21:08:56.890Z,14.48
2022-10-02T21:11:35.703Z,14.54
2022-10-02T21:14:30.806Z,14.59
2022-10-02T21:17:33.464Z,14.42
2022-10-02T21:20:50.812Z,16.08
2022-10-02T21:23:46.469Z,15.19
2022-10-02T21:26:27.738Z,16.21
2022-10-02T21:29:18.119Z,15.24
2022-10-02T21:32:03.643Z,16.53
2022-10-02T21:34:43.190Z,15.16
2022-10-02T21:37:20.564Z,15.81
2022-10-02T21:40:12.599Z,15.34
2022-10-02T21:43:06.640Z,16.35
2022-10-02T21:46:08.274Z,15.11
2022-10-02T21:49:15.572Z,16.07
2022-10-02T21:52:25.878Z,14.97
2022-10-02T21:55:25.981Z,15.44
2022-10-02T21:58:25.489Z,15.18
2022-10-02T22:01:12.035Z,15.23
2022-10-02T22:03:56.960Z,15.00
2022-10-02T22:06:38.551Z,15.54
2022-10-02T22:09:17.523Z,15.08
2022-10-02T22:11:53.494Z,16.12
2022-10-02T22:14:24.077Z,15.48
2022-10-02T22:16:57.604Z,14.42
2022-10-02T22:19:31.926Z,16.29
2022-10-02T22:22:03.809Z,16.31
2022-10-02T22:24:34.734Z,14.20
2022-10-02T22:27:05.996Z,14.88
2022-10-02T22:29:37.788Z,17.17
2022-10-02T22:32:26.676Z,15.09
2022-10-02T22:34:56.624Z,14.03
2022-10-02T22:37:28.534Z,14.86
2022-10-02T22:40:01.843Z,14.62
2022-10-02T22:42:32.385Z,16.59
2022-10-02T22:45:01.051Z,14.78
2022-10-02T22:47:31.116Z,15.30
2022-10-02T22:49:59.141Z,15.11
2022-10-02T22:52:27.582Z,14.71
2022-10-02T22:54:56.746Z,14.75
2022-10-02T22:57:29.012Z,15.32
2022-10-02T22:59:59.344Z,15.88
2022-10-02T23:02:29.337Z,16.88
2022-10-02T23:05:00.109Z,14.41
2022-10-02T23:07:29.781Z,15.83
2022-10-02T23:09:59.013Z,16.88
2022-10-02T23:12:36.568Z,15.41
2022-10-02T23:15:06.650Z,14.54
2022-10-02T23:17:36.124Z,15.91
2022-10-02T23:20:06.408Z,14.83
2022-10-02T23:22:34.615Z,15.46
2022-10-02T23:25:02.778Z,15.65
2022-10-02T23:27:32.791Z,16.31
2022-10-02T23:30:01.791Z,16.15
2022-10-02T23:32:32.741Z,15.74
2022-10-02T23:35:02.524Z,14.21
2022-10-02T23:37:33.612Z,14.89
2022-10-02T23:40:04.840Z,15.64
2022-10-02T23:42:32.198Z,15.17
2022-10-02T23:45:00.864Z,14.97
2022-10-02T23:47:30.350Z,14.85
2022-10-02T23:49:58.628Z,15.51
2022-10-02T23:52:36.108Z,14.60
2022-10-02T23:55:10.528Z,15.65
2022-10-02T23:57:42.002Z,16.34
